Latest Weather Observations for Coober Pedy Airport

IDS60801

Issued at 7:01 pm CST Wednesday 27 July 2016 (issued every 30 minutes, with the page automatically refreshed every 10 minutes)

About weather observations | Map of weather stations | Latest weather observations for SA | Other Formats
Station Details ID: 016090 Name: COOBER PEDY AIRPORT Lat: -29.03 Lon: 134.72 Height: 225.0 m
Data from the previous 72 hours. | See also: Recent months at Coober Pedy Airport
Date/Time
CST
Temp
°C
App
Temp
°C
Dew
Point
°C
Rel
Hum
%
Delta-T
°C
Wind Press
QNH
hPa
Press
MSL
hPa
Rain since
9am
mm
Dir  Spd
km/h
Gust
km/h
Spd
kts
Gust
kts
27/07:00pm 13.2 9.3 3.3 51 4.4 S 13 15 7 8 1028.2 1028.3 0.0
27/06:30pm 14.1 10.1 3.0 47 5.0 S 13 15 7 8 1028.1 1028.2 0.0
27/06:00pm 15.5 10.8 3.3 44 5.6 S 17 20 9 11 1027.8 1027.9 0.0
27/05:30pm 16.2 11.1 3.3 42 5.9 SSW 19 24 10 13 1027.6 1027.6 0.0
27/05:00pm 16.6 11.4 3.7 42 6.0 SSW 20 26 11 14 1027.4 1027.4 0.0
27/04:30pm 17.0 11.9 3.3 40 6.3 SSW 19 26 10 14 1027.2 1027.2 0.0
27/04:00pm 17.0 12.3 3.3 40 6.4 SSW 17 26 9 14 1027.1 1027.1 0.0
27/03:30pm 16.9 11.6 3.2 40 6.3 S 20 28 11 15 1026.8 1026.8 0.0
27/03:00pm 16.7 11.5 3.7 42 6.1 S 20 30 11 16 1026.5 1026.6 0.0
27/02:30pm 16.6 11.5 4.3 44 5.8 S 20 28 11 15 1026.8 1026.8 0.0
27/02:00pm 16.5 11.0 4.2 44 5.8 S 22 32 12 17 1026.9 1026.9 0.0
27/01:30pm 16.2 10.0 4.3 45 5.6 S 26 37 14 20 1027.0 1027.0 0.0
27/01:00pm 15.8 10.0 4.5 47 5.4 SSW 24 35 13 19 1027.2 1027.2 0.0
27/12:30pm 15.1 8.6 4.5 49 5.0 S 28 33 15 18 1027.6 1027.6 0.0
27/12:00pm 14.9 9.1 4.6 50 4.8 S 24 37 13 20 1027.8 1027.9 0.0
27/11:30am 14.4 7.5 4.4 51 4.6 S 30 37 16 20 1028.2 1028.3 0.0
27/11:00am 13.9 7.0 4.8 54 4.3 S 30 39 16 21 1027.9 1028.0 0.0
27/10:30am 13.3 6.0 4.7 56 4.0 SSW 32 41 17 22 1027.9 1028.0 0.0
27/10:00am 12.9 5.7 5.1 59 3.7 S 32 39 17 21 1027.6 1027.6 0.0
27/09:30am 12.3 5.1 5.7 64 3.1 SSW 33 43 18 23 1027.2 1027.2 0.0
27/09:00am 11.8 4.9 6.3 69 2.6 SSW 32 37 17 20 1026.9 1026.9 0.0
27/08:30am 10.7 5.4 6.8 77 1.9 SSW 24 30 13 16 1026.6 1026.7 0.0
27/08:00am 10.4 5.1 6.9 79 1.7 SW 24 30 13 16 1026.2 1026.3 0.0
27/07:30am 10.1 5.6 7.0 81 1.5 SW 20 26 11 14 1025.9 1026.0 0.0
27/07:00am 9.9 4.7 7.2 83 1.3 SW 24 28 13 15 1025.5 1025.6 0.0
27/06:30am 9.7 5.2 7.1 84 1.2 SW 20 28 11 15 1025.1 1025.2 0.0
27/06:00am 9.2 4.7 6.8 85 1.1 SW 20 28 11 15 1024.8 1024.9 0.0
27/05:30am 9.4 4.2 5.4 76 1.8 WSW 22 28 12 15 1024.6 1024.7 0.0
27/05:00am 8.3 3.3 4.7 78 1.6 WSW 20 26 11 14 1024.5 1024.6 0.0
27/04:30am 8.5 3.4 4.3 75 1.9 WSW 20 24 11 13 1024.0 1024.0 0.0
27/04:00am 8.6 3.5 4.0 73 2.0 WSW 20 24 11 13 1023.8 1023.8 0.0
27/03:30am 8.7 3.5 3.7 71 2.2 WSW 20 24 11 13 1023.7 1023.7 0.0
27/03:00am 8.8 3.8 3.6 70 2.3 WSW 19 24 10 13 1023.8 1023.8 0.0
27/02:30am 9.3 3.7 3.5 67 2.5 WSW 22 26 12 14 1024.0 1024.0 0.0
27/02:00am 9.3 3.7 3.3 66 2.6 WSW 22 26 12 14 1023.9 1023.9 0.0
27/01:30am 9.2 3.9 3.0 65 2.7 WSW 20 22 11 12 1023.8 1023.8 0.0
27/01:00am 9.9 4.2 3.0 62 3.0 WSW 22 26 12 14 1023.8 1023.8 0.0
27/12:30am 9.5 4.4 3.0 64 2.8 WSW 19 24 10 13 1023.8 1023.8 0.0
27/12:00am 9.9 4.8 3.0 62 3.0 W 19 22 10 12 1023.6 1023.6 0.0
 
Date/Time
CST
Temp
°C
App
Temp
°C
Dew
Point
°C
Rel
Hum
%
Delta-T
°C
Wind Press
QNH
hPa
Press
MSL
hPa
Rain since
9am
mm
Dir  Spd
km/h
Gust
km/h
Spd
kts
Gust
kts
26/11:30pm 10.0 4.9 3.1 62 3.0 W 19 22 10 12 1023.7 1023.7 0.0
26/11:00pm 10.4 5.3 3.0 60 3.2 W 19 20 10 11 1023.8 1023.8 0.0
26/10:30pm 10.4 5.6 2.7 59 3.3 WSW 17 19 9 10 1023.6 1023.6 0.0
26/10:00pm 11.2 6.4 2.8 56 3.7 WSW 17 20 9 11 1023.5 1023.5 0.0
26/09:30pm 11.7 6.6 3.0 55 3.8 WSW 19 20 10 11 1023.4 1023.4 0.0
26/09:00pm 12.5 7.2 3.2 53 4.2 WSW 20 26 11 14 1023.0 1023.0 0.0
26/08:30pm 13.2 7.6 3.3 51 4.5 WSW 22 26 12 14 1022.8 1022.8 0.0
26/08:00pm 13.5 8.3 3.6 51 4.5 WSW 20 24 11 13 1022.4 1022.4 0.0
26/07:30pm 14.1 8.9 3.6 49 4.8 WSW 20 26 11 14 1022.1 1022.1 0.0
26/07:00pm 14.8 8.8 3.3 46 5.3 WSW 24 30 13 16 1021.4 1021.5 0.0
26/06:30pm 15.4 9.4 3.2 44 5.6 WSW 24 30 13 16 1021.0 1021.1 0.0
26/06:00pm 16.3 9.8 2.7 40 6.2 WSW 26 33 14 18 1020.6 1020.7 0.0
26/05:30pm 17.4 10.5 2.6 37 6.8 WSW 28 33 15 18 1020.2 1020.2 0.0
26/05:00pm 18.2 10.5 2.5 35 7.3 WSW 32 39 17 21 1020.1 1020.1 0.0
26/04:30pm 18.7 10.8 2.5 34 7.5 WSW 33 44 18 24 1020.2 1020.2 0.0
26/04:00pm 19.0 11.4 2.8 34 7.6 W 32 41 17 22 1020.1 1020.1 0.0
26/03:30pm 19.0 11.4 2.8 34 7.6 W 32 44 17 24 1020.1 1020.1 0.0
26/03:00pm 18.5 10.9 2.8 35 7.3 W 32 39 17 21 1020.2 1020.2 0.0
26/02:30pm 18.4 10.9 3.5 37 7.0 W 32 41 17 22 1020.5 1020.6 0.0
26/02:00pm 18.4 11.3 3.5 37 7.1 W 30 41 16 22 1020.8 1020.9 0.0
26/01:38pm 18.4 11.3 3.5 37 7.1 W 30 48 16 26 1021.1 1021.2 0.0
26/01:30pm 18.2 10.2 3.7 38 6.9 W 35 48 19 26 1021.2 1021.3 0.0
26/01:00pm 17.4 10.4 4.0 41 6.4 W 30 39 16 21 1021.5 1021.6 0.0
26/12:30pm 17.1 10.4 3.8 41 6.2 W 28 35 15 19 1022.2 1022.2 0.0
26/12:00pm 16.6 10.8 4.6 45 5.7 W 24 32 13 17 1022.8 1022.8 0.0
26/11:30am 15.7 11.0 5.0 49 5.1 WNW 19 26 10 14 1023.0 1023.0 0.0
26/11:00am 14.8 11.0 5.6 54 4.4 NW 15 19 8 10 1022.8 1022.8 0.0
26/10:30am 13.4 9.9 5.6 59 3.7 WNW 13 17 7 9 1023.5 1023.5 0.0
26/10:00am 12.5 9.4 5.7 63 3.2 NW 11 15 6 8 1023.6 1023.6 0.0
26/09:30am 11.0 8.2 5.1 67 2.7 WNW 9 11 5 6 1023.7 1023.7 0.0
26/09:00am 9.3 6.3 4.3 71 2.2 WNW 9 13 5 7 1023.5 1023.5 0.0
26/08:30am 7.5 4.0 3.6 76 1.7 WNW 11 13 6 7 1023.3 1023.3 0.0
26/08:00am 5.6 1.6 3.1 84 1.0 WNW 13 15 7 8 1022.8 1022.8 0.0
26/07:30am 4.2 0.8 1.9 85 0.9 W 9 9 5 5 1022.5 1022.5 0.0
26/07:00am 4.2 0.5 2.2 87 0.8 WSW 11 11 6 6 1022.3 1022.3 0.0
26/06:30am 4.3 0.2 2.0 85 0.9 WSW 13 13 7 7 1022.1 1022.1 0.0
26/06:00am 5.4 1.8 2.8 83 1.1 SW 11 11 6 6 1021.9 1022.0 0.0
26/05:30am 4.4 0.6 1.8 83 1.0 SW 11 13 6 7 1021.6 1021.7 0.0
26/05:00am 5.3 1.2 2.1 80 1.3 SW 13 13 7 7 1021.4 1021.5 0.0
26/04:30am 5.5 1.8 2.2 79 1.3 WSW 11 13 6 7 1021.3 1021.4 0.0
26/04:00am 6.3 2.3 2.8 78 1.5 W 13 15 7 8 1021.3 1021.4 0.0
26/03:30am 5.8 1.7 2.4 79 1.4 W 13 13 7 7 1021.6 1021.7 0.0
26/03:00am 6.1 2.4 2.6 78 1.5 W 11 13 6 7 1021.7 1021.8 0.0
26/02:30am 6.4 2.3 2.3 75 1.7 WSW 13 13 7 7 1021.9 1022.0 0.0
26/02:00am 7.0 2.9 2.5 73 1.9 WSW 13 13 7 7 1022.1 1022.1 0.0
26/01:30am 7.3 3.3 2.6 72 2.0 WSW 13 15 7 8 1022.3 1022.3 0.0
26/01:00am 7.9 4.3 3.0 71 2.1 WSW 11 13 6 7 1022.5 1022.5 0.0
26/12:30am 8.3 4.3 3.0 69 2.3 WSW 13 13 7 7 1022.5 1022.5 0.0
26/12:00am 8.9 5.3 3.1 67 2.5 W 11 13 6 7 1022.5 1022.5 0.0
 
Date/Time
CST
Temp
°C
App
Temp
°C
Dew
Point
°C
Rel
Hum
%
Delta-T
°C
Wind Press
QNH
hPa
Press
MSL
hPa
Rain since
9am
mm
Dir  Spd
km/h
Gust
km/h
Spd
kts
Gust
kts
25/11:30pm 9.3 6.1 3.3 66 2.6 WSW 9 11 5 6 1022.6 1022.6 0.0
25/11:00pm 9.0 6.1 2.8 65 2.7 WSW 7 9 4 5 1022.7 1022.7 0.0
25/10:30pm 9.8 6.6 3.3 64 2.8 WSW 9 9 5 5 1022.8 1022.8 0.0
25/10:00pm 10.0 6.5 3.3 63 2.9 SW 11 13 6 7 1022.7 1022.7 0.0
25/09:30pm 10.2 5.9 3.0 61 3.1 SW 15 15 8 8 1022.8 1022.8 0.0
25/09:00pm 10.5 5.8 3.1 60 3.2 SW 17 17 9 9 1022.7 1022.7 0.0
25/08:30pm 10.6 6.6 2.9 59 3.4 SW 13 15 7 8 1022.6 1022.6 0.0
25/08:00pm 11.0 7.0 2.8 57 3.6 WSW 13 15 7 8 1022.5 1022.5 0.0
25/07:30pm 11.7 7.7 3.0 55 3.8 WSW 13 15 7 8 1022.2 1022.2 0.0
25/07:00pm 12.8 8.8 2.9 51 4.4 WSW 13 13 7 7 1021.9 1022.0 0.0
25/06:30pm 13.9 9.9 2.8 47 5.0 WSW 13 15 7 8 1021.6 1021.7 0.0
25/06:00pm 15.3 10.6 3.1 44 5.6 SW 17 20 9 11 1021.4 1021.5 0.0
25/05:30pm 16.5 11.4 3.2 41 6.1 WSW 19 24 10 13 1021.2 1021.3 0.0
25/05:00pm 17.3 12.7 3.6 40 6.4 WSW 17 22 9 12 1021.2 1021.3 0.0
25/04:30pm 17.3 12.3 3.6 40 6.4 WSW 19 24 10 13 1021.2 1021.3 0.0
25/04:00pm 17.2 12.2 3.5 40 6.4 WSW 19 28 10 15 1021.1 1021.2 0.0
25/03:30pm 17.3 12.4 3.9 41 6.3 W 19 26 10 14 1021.2 1021.3 0.0
25/03:00pm 17.1 13.0 4.1 42 6.1 WNW 15 22 8 12 1021.3 1021.4 0.0
25/02:30pm 16.5 11.6 3.9 43 5.9 W 19 24 10 13 1021.8 1021.9 0.0
25/02:00pm 15.6 11.0 3.7 45 5.5 W 17 26 9 14 1022.4 1022.4 0.0
25/01:30pm 15.5 11.0 4.3 47 5.2 WSW 17 26 9 14 1022.6 1022.6 0.0
25/01:00pm 15.3 10.5 4.7 49 5.0 W 19 28 10 15 1023.3 1023.3 0.0
25/12:30pm 14.3 9.8 4.3 51 4.6 WSW 17 26 9 14 1023.9 1023.9 0.0
25/12:00pm 13.6 8.5 4.2 53 4.3 SW 20 28 11 15 1024.5 1024.6 0.0
25/11:30am 13.4 8.6 4.8 56 4.0 SW 19 28 10 15 1025.0 1025.1 0.0
25/11:00am 12.5 7.7 4.7 59 3.6 SW 19 26 10 14 1025.3 1025.4 0.0
25/10:30am 11.9 7.0 5.3 64 3.1 SW 20 24 11 13 1025.5 1025.6 0.0
25/10:00am 11.3 6.7 5.4 67 2.7 SW 19 24 10 13 1025.3 1025.4 0.0
25/09:30am 10.1 5.8 5.1 71 2.3 WSW 17 22 9 12 1025.4 1025.5 0.0
25/09:00am 8.8 4.8 4.8 76 1.8 W 15 19 8 10 1025.1 1025.2 0.0
25/08:30am 6.8 3.0 3.8 81 1.3 W 13 17 7 9 1024.9 1025.0 0.0
25/08:00am 4.6 0.6 2.8 88 0.7 W 13 15 7 8 1024.4 1024.5 0.0
25/07:30am 3.2 -1.0 1.7 90 0.6 W 13 13 7 7 1024.1 1024.2 0.0
25/07:00am 3.1 -1.1 1.6 90 0.6 W 13 13 7 7 1023.8 1023.8 0.0
25/06:30am 3.3 -0.9 1.7 89 0.6 W 13 13 7 7 1023.5 1023.5 0.0
25/06:00am 3.9 -0.2 2.1 88 0.7 W 13 15 7 8 1023.3 1023.3 0.0
25/05:30am 4.1 0.0 2.1 87 0.8 WNW 13 15 7 8 1023.2 1023.2 0.0
25/05:00am 4.3 0.2 2.2 86 0.9 W 13 15 7 8 1022.9 1022.9 0.0
25/04:30am 4.4 0.3 2.1 85 0.9 WNW 13 15 7 8 1022.6 1022.6 0.0
25/04:00am 5.3 1.2 2.5 82 1.2 W 13 17 7 9 1022.7 1022.7 0.0
25/03:30am 4.7 0.9 1.7 81 1.2 W 11 13 6 7 1022.7 1022.7 0.0
25/03:00am 6.0 1.5 2.3 77 1.5 SW 15 19 8 10 1022.4 1022.4 0.0
25/02:30am 6.6 1.4 2.5 75 1.7 SW 19 20 10 11 1022.4 1022.4 0.0
25/02:00am 6.4 1.9 1.9 73 1.8 SW 15 17 8 9 1022.7 1022.7 0.0
25/01:30am 6.8 1.5 1.9 71 2.0 SW 19 20 10 11 1022.7 1022.7 0.0
25/01:00am 7.2 1.9 1.9 69 2.2 SW 19 20 10 11 1022.7 1022.7 0.0
25/12:30am 7.5 2.6 1.8 67 2.3 SW 17 20 9 11 1022.9 1022.9 0.0
25/12:00am 7.6 2.7 1.9 67 2.4 WSW 17 20 9 11 1023.1 1023.1 0.0
 
Date/Time
CST
Temp
°C
App
Temp
°C
Dew
Point
°C
Rel
Hum
%
Delta-T
°C
Wind Press
QNH
hPa
Press
MSL
hPa
Rain since
9am
mm
Dir  Spd
km/h
Gust
km/h
Spd
kts
Gust
kts
24/11:30pm 7.2 2.6 1.7 68 2.3 WSW 15 15 8 8 1023.2 1023.2 0.0
24/11:00pm 8.4 3.9 2.0 64 2.7 WSW 15 17 8 9 1023.2 1023.2 0.0
24/10:30pm 8.1 3.2 1.7 64 2.6 SW 17 17 9 9 1023.1 1023.1 0.0
24/10:00pm 8.8 4.2 1.7 61 3.0 SW 15 17 8 9 1022.8 1022.8 0.0
24/09:30pm 9.4 4.5 1.8 59 3.2 SW 17 19 9 10 1022.8 1022.8 0.0
24/09:00pm 10.1 4.8 1.7 56 3.5 SSW 19 20 10 11 1022.8 1022.8 0.0
24/08:30pm 10.6 5.3 1.9 55 3.7 SW 19 20 10 11 1022.6 1022.6 0.0
24/08:00pm 11.2 5.9 1.7 52 4.1 SW 19 22 10 12 1022.6 1022.6 0.0
24/07:30pm 11.5 6.2 1.7 51 4.2 SW 19 22 10 12 1022.1 1022.1 0.0

Other Formats:

Comma delimited format used in spreadsheet applications
http://www.bom.gov.au/fwo/IDS60801/IDS60801.95458.axf

JavaScript Object Notation format (JSON) in row-major order
http://www.bom.gov.au/fwo/IDS60801/IDS60801.95458.json